createdAt,value
2018-09-25T00:04:14.210Z,9.10
2018-09-25T00:09:34.961Z,9.10
2018-09-25T00:14:56.248Z,9.10
2018-09-25T00:20:17.003Z,9.00
2018-09-25T00:25:37.872Z,9.10
2018-09-25T00:30:58.824Z,9.10
2018-09-25T00:36:19.804Z,9.10
2018-09-25T00:41:40.672Z,9.10
2018-09-25T00:47:01.707Z,9.00
2018-09-25T00:52:22.572Z,9.00
2018-09-25T00:57:43.577Z,8.90
2018-09-25T01:03:04.678Z,8.70
2018-09-25T01:08:25.387Z,8.60
2018-09-25T01:13:46.528Z,8.50
2018-09-25T01:19:07.405Z,8.40
2018-09-25T01:24:28.142Z,8.30
2018-09-25T01:29:48.903Z,8.20
2018-09-25T01:35:09.640Z,8.10
2018-09-25T01:40:30.419Z,8.10
2018-09-25T01:45:51.678Z,8.00
2018-09-25T01:51:12.639Z,8.10
2018-09-25T01:56:33.367Z,8.10
2018-09-25T02:01:54.132Z,7.90
2018-09-25T02:07:14.783Z,7.90
2018-09-25T02:12:35.865Z,7.80
2018-09-25T02:17:56.774Z,7.70
2018-09-25T02:23:17.759Z,7.60
2018-09-25T02:28:38.903Z,7.50
2018-09-25T02:33:59.652Z,7.50
2018-09-25T02:39:20.843Z,7.40
2018-09-25T02:44:41.743Z,7.30
2018-09-25T02:50:02.567Z,7.20
2018-09-25T02:55:24.076Z,7.30
2018-09-25T03:00:44.813Z,7.20
2018-09-25T03:06:06.049Z,7.10
2018-09-25T03:11:26.858Z,7.00
2018-09-25T03:16:47.815Z,6.90
2018-09-25T03:22:08.594Z,6.80
2018-09-25T03:27:29.476Z,6.80
2018-09-25T03:32:50.218Z,6.80
2018-09-25T03:38:11.024Z,6.70
2018-09-25T03:43:31.718Z,6.60
2018-09-25T03:48:52.537Z,6.60
2018-09-25T03:54:13.696Z,6.50
2018-09-25T03:59:34.340Z,6.50
2018-09-25T04:04:55.592Z,6.40
2018-09-25T04:10:16.280Z,6.40
2018-09-25T04:15:37.061Z,6.40
2018-09-25T04:21:00.653Z,6.30
2018-09-25T04:26:21.733Z,6.30
2018-09-25T04:31:42.488Z,6.30
2018-09-25T04:37:03.619Z,6.30
2018-09-25T04:42:24.844Z,6.20
2018-09-25T04:47:45.792Z,6.30
2018-09-25T04:53:06.875Z,6.20
2018-09-25T04:58:27.811Z,6.10
2018-09-25T05:03:48.616Z,6.10
2018-09-25T05:09:09.428Z,6.00
2018-09-25T05:14:30.667Z,6.10
2018-09-25T05:19:51.544Z,6.10
2018-09-25T05:25:12.832Z,6.10
2018-09-25T05:30:33.588Z,6.10
2018-09-25T05:35:54.484Z,6.10
2018-09-25T05:41:15.124Z,6.10
2018-09-25T05:46:36.450Z,6.20
2018-09-25T05:51:57.596Z,6.30
2018-09-25T05:57:18.761Z,6.40
2018-09-25T06:02:39.794Z,6.60
2018-09-25T06:08:01.110Z,6.90
2018-09-25T06:13:22.113Z,7.50
2018-09-25T06:18:42.947Z,8.50
2018-09-25T06:24:03.643Z,9.80
2018-09-25T06:29:24.592Z,11.30
2018-09-25T06:34:45.401Z,12.10
2018-09-25T06:40:06.111Z,12.90
2018-09-25T06:45:27.059Z,13.20
2018-09-25T06:50:47.954Z,13.90
2018-09-25T06:56:08.982Z,14.80
2018-09-25T07:01:29.910Z,14.60
2018-09-25T07:06:50.782Z,15.30
2018-09-25T07:12:12.021Z,15.80
2018-09-25T07:17:33.121Z,16.20
2018-09-25T07:22:54.213Z,16.50
2018-09-25T07:28:15.291Z,17.20
2018-09-25T07:33:36.430Z,17.60
2018-09-25T07:38:57.594Z,17.90
2018-09-25T07:44:18.606Z,17.20
2018-09-25T07:49:39.785Z,17.10
2018-09-25T07:55:00.653Z,17.90
2018-09-25T08:00:21.674Z,18.30
2018-09-25T08:05:42.736Z,17.70
2018-09-25T08:11:03.574Z,17.50
2018-09-25T08:16:25.333Z,16.90
2018-09-25T08:21:46.078Z,16.20
2018-09-25T08:27:07.056Z,15.40
2018-09-25T08:32:28.143Z,14.90
2018-09-25T08:37:48.992Z,14.10
2018-09-25T08:43:10.036Z,13.20
2018-09-25T08:48:30.770Z,12.40
2018-09-25T08:53:51.954Z,12.30
2018-09-25T08:59:12.742Z,12.20
2018-09-25T09:04:33.437Z,12.20
2018-09-25T09:09:54.482Z,12.10
2018-09-25T09:15:15.527Z,12.20
2018-09-25T09:20:36.436Z,12.20
2018-09-25T09:25:57.537Z,12.40
2018-09-25T09:31:20.057Z,12.90
2018-09-25T09:36:39.888Z,13.20
2018-09-25T09:42:01.241Z,13.90
2018-09-25T09:47:22.120Z,14.80
2018-09-25T09:52:43.029Z,16.80
2018-09-25T09:58:03.969Z,18.80
2018-09-25T10:03:24.946Z,20.50
2018-09-25T10:08:46.082Z,21.90
2018-09-25T10:14:07.096Z,21.80
2018-09-25T10:19:27.928Z,22.30
2018-09-25T10:24:48.939Z,20.20
2018-09-25T10:30:09.950Z,20.90
2018-09-25T10:35:31.012Z,21.00
2018-09-25T10:40:51.937Z,21.60
2018-09-25T10:46:12.937Z,21.90
2018-09-25T10:51:34.167Z,23.10
2018-09-25T10:56:55.187Z,22.80
2018-09-25T11:02:16.246Z,22.80
2018-09-25T11:07:37.093Z,22.60
2018-09-25T11:12:58.301Z,23.20
2018-09-25T11:18:19.312Z,23.00
2018-09-25T11:23:40.372Z,23.40
2018-09-25T11:29:01.144Z,22.90
2018-09-25T11:34:22.442Z,23.20
2018-09-25T11:39:43.229Z,23.10
2018-09-25T11:45:04.212Z,22.90
2018-09-25T11:50:24.917Z,22.60
2018-09-25T11:55:45.630Z,22.60
2018-09-25T12:01:06.551Z,21.40
2018-09-25T12:06:27.877Z,20.70
2018-09-25T12:11:48.845Z,21.00
2018-09-25T12:17:09.816Z,22.30
2018-09-25T12:22:30.829Z,20.40
2018-09-25T12:27:51.920Z,21.20
2018-09-25T12:33:13.068Z,22.20
2018-09-25T12:38:33.842Z,23.20
2018-09-25T12:43:54.855Z,22.70
2018-09-25T12:49:15.794Z,22.10
2018-09-25T12:54:36.699Z,21.90
2018-09-25T12:59:57.692Z,21.10
2018-09-25T13:05:18.609Z,21.10
2018-09-25T13:10:39.911Z,21.00
2018-09-25T13:16:00.664Z,20.50
2018-09-25T13:21:21.711Z,19.50
2018-09-25T13:26:42.780Z,19.40
2018-09-25T13:32:04.057Z,18.70
2018-09-25T13:37:24.938Z,18.20
2018-09-25T13:42:45.873Z,17.60
2018-09-25T13:48:06.637Z,17.20
2018-09-25T13:53:27.430Z,16.90
2018-09-25T13:58:48.140Z,16.70
2018-09-25T14:04:09.109Z,16.40
2018-09-25T14:09:30.104Z,16.30
2018-09-25T14:14:51.193Z,16.10
2018-09-25T14:20:12.194Z,16.10
2018-09-25T14:25:33.177Z,15.90
2018-09-25T14:30:53.967Z,15.80
2018-09-25T14:36:15.177Z,15.90
2018-09-25T14:41:36.354Z,16.10
2018-09-25T14:46:57.294Z,16.10
2018-09-25T14:52:27.300Z,16.10
2018-09-25T14:57:48.143Z,16.20
2018-09-25T15:03:08.964Z,16.00
2018-09-25T15:08:30.024Z,16.20
2018-09-25T15:13:51.036Z,16.10
2018-09-25T15:19:11.971Z,16.20
2018-09-25T15:24:33.294Z,16.20
2018-09-25T15:29:54.061Z,16.40
2018-09-25T15:35:15.521Z,16.50
2018-09-25T15:40:36.457Z,16.40
2018-09-25T15:45:57.812Z,16.10
2018-09-25T15:51:18.675Z,16.10
2018-09-25T15:56:39.883Z,15.80
2018-09-25T16:02:00.996Z,15.70
2018-09-25T16:07:24.957Z,15.60
2018-09-25T16:12:45.718Z,15.50
2018-09-25T16:18:06.454Z,15.40
2018-09-25T16:23:27.585Z,15.40
2018-09-25T16:28:48.910Z,15.30
2018-09-25T16:34:09.932Z,15.10
2018-09-25T16:39:31.142Z,15.00
2018-09-25T16:44:52.253Z,14.90
2018-09-25T16:50:13.349Z,14.90
2018-09-25T16:55:34.093Z,14.70
2018-09-25T17:00:54.968Z,14.60
2018-09-25T17:06:16.254Z,16.80
2018-09-25T17:11:37.455Z,14.30
2018-09-25T17:16:58.536Z,14.20
2018-09-25T17:22:19.440Z,14.00
2018-09-25T17:27:40.256Z,13.90
2018-09-25T17:33:01.305Z,13.70
2018-09-25T17:38:22.039Z,13.60
2018-09-25T17:43:42.905Z,13.40
2018-09-25T17:49:03.999Z,13.30
2018-09-25T17:54:24.968Z,13.10
2018-09-25T17:59:45.805Z,12.90
2018-09-25T18:05:06.989Z,12.60
2018-09-25T18:10:27.958Z,12.30
2018-09-25T18:15:48.999Z,12.20
2018-09-25T18:21:10.118Z,12.10
2018-09-25T18:26:30.861Z,12.00
2018-09-25T18:31:51.699Z,11.90
2018-09-25T18:37:12.518Z,11.70
2018-09-25T18:42:33.490Z,11.70
2018-09-25T18:47:54.134Z,11.60
2018-09-25T18:53:15.373Z,11.50
2018-09-25T18:58:36.449Z,11.40
2018-09-25T19:03:57.228Z,11.40
2018-09-25T19:09:17.897Z,11.30
2018-09-25T19:14:38.588Z,11.10
2018-09-25T19:19:59.419Z,11.10
2018-09-25T19:25:20.526Z,11.00
2018-09-25T19:30:41.818Z,11.00
2018-09-25T19:36:02.822Z,11.00
2018-09-25T19:41:23.672Z,11.00
2018-09-25T19:46:44.850Z,10.20
2018-09-25T19:52:06.030Z,10.80
2018-09-25T19:57:26.985Z,10.70
2018-09-25T20:02:48.077Z,10.60
2018-09-25T20:08:08.907Z,10.40
2018-09-25T20:13:30.106Z,10.40
2018-09-25T20:18:50.963Z,10.30
2018-09-25T20:24:11.841Z,10.20
2018-09-25T20:29:32.885Z,10.20
2018-09-25T20:34:53.574Z,10.10
2018-09-25T20:40:14.408Z,10.10
2018-09-25T20:45:35.277Z,10.10
2018-09-25T20:50:56.048Z,10.00
2018-09-25T20:56:16.846Z,10.00
2018-09-25T21:01:37.642Z,9.90
2018-09-25T21:06:58.327Z,9.90
2018-09-25T21:12:19.555Z,9.80
2018-09-25T21:17:40.554Z,9.70
2018-09-25T21:23:01.462Z,9.60
2018-09-25T21:28:22.228Z,9.50
2018-09-25T21:33:43.379Z,9.50
2018-09-25T21:39:04.484Z,9.40
2018-09-25T21:44:25.583Z,9.20
2018-09-25T21:49:46.487Z,9.10
2018-09-25T21:55:07.587Z,9.10
2018-09-25T22:00:28.911Z,8.90
2018-09-25T22:05:49.779Z,8.90
2018-09-25T22:11:10.897Z,8.80
2018-09-25T22:16:31.650Z,8.70
2018-09-25T22:21:52.389Z,8.60
2018-09-25T22:27:13.182Z,8.60
2018-09-25T22:32:34.027Z,8.50
2018-09-25T22:37:54.848Z,8.40
2018-09-25T22:43:15.620Z,8.40
2018-09-25T22:48:36.956Z,8.30
2018-09-25T22:53:57.713Z,8.30
2018-09-25T22:59:18.424Z,8.20
2018-09-25T23:04:39.216Z,8.10
2018-09-25T23:10:00.252Z,8.10
2018-09-25T23:15:21.175Z,8.30
2018-09-25T23:20:42.000Z,8.30
2018-09-25T23:26:02.968Z,8.30
2018-09-25T23:31:24.376Z,8.20
2018-09-25T23:36:45.606Z,8.10
2018-09-25T23:42:06.333Z,8.10
2018-09-25T23:47:27.404Z,8.10
2018-09-25T23:53:01.562Z,8.10
2018-09-25T23:58:17.126Z,8.00
